createdAt,value
2019-01-17T00:02:22.327Z,16.37
2019-01-17T00:04:58.899Z,18.13
2019-01-17T00:07:32.101Z,15.90
2019-01-17T00:10:14.331Z,11.87
2019-01-17T00:12:59.361Z,14.93
2019-01-17T00:15:41.688Z,12.83
2019-01-17T00:18:11.773Z,17.77
2019-01-17T00:20:48.477Z,11.70
2019-01-17T00:23:31.165Z,13.27
2019-01-17T00:26:13.201Z,9.10
2019-01-17T00:28:43.585Z,7.90
2019-01-17T00:31:14.105Z,11.50
2019-01-17T00:33:50.462Z,9.40
2019-01-17T00:36:37.393Z,6.83
2019-01-17T00:39:26.012Z,6.97
2019-01-17T00:42:04.929Z,9.60
2019-01-17T00:44:44.506Z,9.47
2019-01-17T00:47:26.929Z,8.48
2019-01-17T00:50:03.189Z,12.03
2019-01-17T00:52:49.551Z,9.47
2019-01-17T00:55:19.984Z,14.40
2019-01-17T00:58:06.382Z,19.87
2019-01-17T01:00:39.321Z,25.83
2019-01-17T01:03:26.162Z,20.00
2019-01-17T01:06:14.399Z,13.93
2019-01-17T01:08:53.259Z,16.60
2019-01-17T01:11:32.713Z,12.50
2019-01-17T01:14:06.053Z,9.70
2019-01-17T01:16:41.642Z,9.93
2019-01-17T01:19:14.713Z,14.30
2019-01-17T01:21:45.231Z,14.47
2019-01-17T01:24:18.532Z,12.67
2019-01-17T01:27:08.414Z,18.03
2019-01-17T01:29:54.998Z,21.90
2019-01-17T01:32:34.138Z,24.17
2019-01-17T01:35:20.672Z,28.07
2019-01-17T01:38:07.275Z,33.83
2019-01-17T01:40:46.445Z,30.03
2019-01-17T01:43:35.122Z,36.33
2019-01-17T01:46:21.894Z,36.80
2019-01-17T01:48:54.540Z,35.87
2019-01-17T01:51:39.730Z,34.70
2019-01-17T01:54:08.715Z,31.23
2019-01-17T01:56:37.473Z,29.87
2019-01-17T01:59:06.277Z,29.90
2019-01-17T02:01:34.720Z,33.77
2019-01-17T02:04:03.593Z,35.70
2019-01-17T02:06:33.830Z,32.17
2019-01-17T02:09:02.582Z,33.87
2019-01-17T02:11:31.337Z,37.07
2019-01-17T02:14:00.134Z,30.50
2019-01-17T02:16:28.922Z,32.57
2019-01-17T02:18:57.794Z,36.27
2019-01-17T02:21:26.668Z,33.23
2019-01-17T02:23:55.395Z,44.27
2019-01-17T02:26:24.137Z,34.10
2019-01-17T02:28:52.634Z,33.13
2019-01-17T02:31:21.078Z,29.57
2019-01-17T02:33:49.768Z,33.43
2019-01-17T02:36:18.517Z,28.93
2019-01-17T02:38:47.232Z,30.53
2019-01-17T02:41:16.063Z,29.70
2019-01-17T02:43:44.853Z,28.07
2019-01-17T02:46:13.364Z,30.40
2019-01-17T02:48:42.120Z,31.73
2019-01-17T02:51:10.878Z,29.30
2019-01-17T02:53:39.323Z,29.67
2019-01-17T02:56:08.068Z,26.53
2019-01-17T02:58:36.544Z,24.37
2019-01-17T03:01:05.320Z,26.70
2019-01-17T03:03:34.095Z,24.43
2019-01-17T03:06:02.889Z,31.47
2019-01-17T03:08:31.396Z,30.57
2019-01-17T03:11:00.262Z,29.77
2019-01-17T03:13:28.809Z,28.70
2019-01-17T03:15:57.324Z,26.83
2019-01-17T03:18:26.110Z,32.77
2019-01-17T03:20:54.910Z,33.53
2019-01-17T03:23:23.720Z,35.17
2019-01-17T03:25:52.484Z,39.50
2019-01-17T03:28:21.294Z,34.57
2019-01-17T03:30:50.162Z,28.00
2019-01-17T03:33:18.875Z,38.13
2019-01-17T03:35:47.737Z,39.10
2019-01-17T03:38:16.612Z,34.70
2019-01-17T03:40:45.352Z,34.57
2019-01-17T03:43:14.186Z,37.40
2019-01-17T03:45:42.641Z,41.30
2019-01-17T03:48:11.569Z,37.03
2019-01-17T03:50:40.361Z,42.50
2019-01-17T03:53:10.325Z,38.23
2019-01-17T03:55:38.941Z,43.33
2019-01-17T03:58:07.737Z,50.70
2019-01-17T04:00:36.185Z,46.43
2019-01-17T04:03:04.718Z,47.40
2019-01-17T04:05:33.467Z,47.63
2019-01-17T04:08:02.295Z,48.93
2019-01-17T04:10:32.161Z,44.77
2019-01-17T04:13:00.954Z,45.33
2019-01-17T04:15:29.465Z,46.50
2019-01-17T04:17:57.961Z,44.80
2019-01-17T04:20:26.402Z,58.87
2019-01-17T04:22:55.237Z,53.30
2019-01-17T04:25:24.060Z,59.53
2019-01-17T04:27:52.521Z,54.67
2019-01-17T04:30:21.050Z,50.13
2019-01-17T04:32:49.586Z,46.33
2019-01-17T04:35:18.300Z,47.80
2019-01-17T04:37:47.104Z,46.63
2019-01-17T04:40:15.849Z,60.13
2019-01-17T04:42:44.364Z,55.13
2019-01-17T04:45:14.058Z,55.27
2019-01-17T04:47:42.773Z,53.83
2019-01-17T04:50:13.655Z,57.80
2019-01-17T04:52:42.311Z,57.63
2019-01-17T04:55:12.923Z,58.87
2019-01-17T04:57:41.807Z,54.43
2019-01-17T05:00:19.538Z,48.90
2019-01-17T05:02:48.114Z,48.60
2019-01-17T05:05:16.956Z,48.40
2019-01-17T05:07:46.002Z,47.40
2019-01-17T05:10:16.808Z,49.27
2019-01-17T05:12:45.298Z,51.70
2019-01-17T05:15:14.675Z,47.70
2019-01-17T05:17:43.111Z,47.50
2019-01-17T05:20:14.394Z,48.60
2019-01-17T05:22:43.167Z,54.53
2019-01-17T05:25:12.965Z,54.23
2019-01-17T05:27:41.978Z,56.67
2019-01-17T05:30:15.921Z,49.97
2019-01-17T05:32:44.539Z,55.33
2019-01-17T05:35:13.246Z,52.67
2019-01-17T05:37:42.129Z,52.80
2019-01-17T05:40:13.627Z,55.77
2019-01-17T05:42:42.329Z,59.10
2019-01-17T05:45:11.296Z,53.67
2019-01-17T05:47:39.813Z,62.43
2019-01-17T05:50:13.605Z,58.97
2019-01-17T05:52:42.071Z,52.23
2019-01-17T05:55:10.874Z,64.07
2019-01-17T05:57:39.329Z,62.50
2019-01-17T06:00:14.331Z,62.77
2019-01-17T06:02:42.929Z,65.20
2019-01-17T06:05:12.497Z,65.33
2019-01-17T06:07:40.983Z,61.47
2019-01-17T06:10:13.304Z,62.87
2019-01-17T06:12:42.179Z,65.07
2019-01-17T06:15:17.823Z,63.13
2019-01-17T06:17:46.729Z,61.03
2019-01-17T06:20:16.822Z,54.00
2019-01-17T06:22:45.365Z,60.90
2019-01-17T06:25:14.000Z,56.17
2019-01-17T06:27:42.513Z,58.90
2019-01-17T06:30:15.843Z,54.90
2019-01-17T06:32:44.643Z,56.00
2019-01-17T06:35:14.670Z,57.03
2019-01-17T06:37:43.152Z,58.47
2019-01-17T06:40:23.723Z,62.87
2019-01-17T06:42:52.605Z,56.63
2019-01-17T06:45:21.475Z,50.90
2019-01-17T06:47:50.079Z,53.90
2019-01-17T06:50:18.575Z,58.73
2019-01-17T06:52:47.043Z,51.90
2019-01-17T06:55:15.687Z,50.30
2019-01-17T06:57:44.664Z,50.40
2019-01-17T07:00:17.100Z,54.73
2019-01-17T07:02:45.768Z,59.53
2019-01-17T07:05:15.214Z,60.63
2019-01-17T07:07:43.933Z,58.33
2019-01-17T07:10:15.300Z,64.90
2019-01-17T07:12:44.183Z,66.03
2019-01-17T07:15:14.233Z,64.73
2019-01-17T07:17:42.691Z,62.10
2019-01-17T07:20:13.680Z,59.33
2019-01-17T07:22:42.496Z,63.83
2019-01-17T07:25:11.562Z,64.93
2019-01-17T07:27:40.425Z,57.73
2019-01-17T07:30:17.877Z,62.13
2019-01-17T07:32:46.405Z,62.33
2019-01-17T07:35:15.442Z,73.57
2019-01-17T07:37:44.342Z,53.80
2019-01-17T07:40:13.731Z,64.77
2019-01-17T07:42:42.246Z,58.60
2019-01-17T07:45:19.852Z,56.20
2019-01-17T07:47:48.624Z,57.53
2019-01-17T07:50:17.499Z,64.20
2019-01-17T07:52:46.261Z,67.13
2019-01-17T07:55:14.854Z,55.83
2019-01-17T07:57:45.455Z,62.23
2019-01-17T08:00:19.108Z,51.07
2019-01-17T08:02:48.014Z,56.93
2019-01-17T08:05:18.719Z,60.70
2019-01-17T08:07:48.635Z,55.43
2019-01-17T08:10:19.203Z,61.00
2019-01-17T08:12:48.252Z,54.57
2019-01-17T08:15:17.337Z,53.03
2019-01-17T08:17:46.083Z,51.73
2019-01-17T08:20:20.515Z,47.03
2019-01-17T08:22:49.424Z,47.40
2019-01-17T08:25:19.972Z,52.67
2019-01-17T08:27:48.776Z,46.33
2019-01-17T08:30:23.443Z,39.07
2019-01-17T08:32:51.972Z,38.30
2019-01-17T08:35:20.869Z,38.13
2019-01-17T08:37:52.471Z,44.40
2019-01-17T08:40:24.092Z,32.27
2019-01-17T08:42:53.048Z,29.03
2019-01-17T08:45:21.820Z,31.07
2019-01-17T08:47:50.604Z,30.73
2019-01-17T08:50:19.492Z,32.63
2019-01-17T08:52:47.956Z,28.07
2019-01-17T08:55:16.481Z,28.67
2019-01-17T08:57:45.032Z,26.43
2019-01-17T09:00:19.683Z,19.60
2019-01-17T09:02:48.569Z,24.10
2019-01-17T09:05:17.760Z,20.73
2019-01-17T09:07:46.590Z,18.17
2019-01-17T09:10:20.546Z,13.77
2019-01-17T09:12:49.350Z,18.63
2019-01-17T09:15:20.760Z,13.17
2019-01-17T09:17:49.650Z,12.83
2019-01-17T09:20:18.241Z,16.83
2019-01-17T09:22:47.056Z,13.43
2019-01-17T09:25:17.026Z,14.70
2019-01-17T09:27:45.738Z,16.07
2019-01-17T09:30:20.382Z,12.87
2019-01-17T09:32:49.238Z,17.83
2019-01-17T09:35:18.881Z,13.13
2019-01-17T09:37:47.497Z,14.17
2019-01-17T09:40:18.291Z,11.43
2019-01-17T09:42:47.361Z,5.77
2019-01-17T09:45:16.304Z,3.23
2019-01-17T09:47:45.253Z,6.30
2019-01-17T09:50:16.914Z,5.30
2019-01-17T09:52:45.452Z,5.50
2019-01-17T09:55:13.962Z,7.80
2019-01-17T09:57:42.828Z,3.83
2019-01-17T10:00:14.620Z,4.03
2019-01-17T10:02:43.596Z,2.63
2019-01-17T10:05:12.049Z,2.87
2019-01-17T10:07:40.862Z,5.77
2019-01-17T10:10:12.427Z,1.33
2019-01-17T10:12:40.951Z,1.70
2019-01-17T10:15:15.529Z,1.50
2019-01-17T10:17:58.959Z,1.73
2019-01-17T10:20:42.143Z,3.53
2019-01-17T10:23:28.930Z,2.20
2019-01-17T10:26:21.222Z,5.17
2019-01-17T10:29:10.509Z,2.37
2019-01-17T10:31:47.805Z,2.33
2019-01-17T10:34:28.254Z,4.10
2019-01-17T10:37:02.684Z,3.07
2019-01-17T10:39:54.663Z,6.97
2019-01-17T10:42:41.314Z,5.30
2019-01-17T10:45:37.748Z,2.40
2019-01-17T10:48:36.592Z,1.93
2019-01-17T10:51:19.600Z,1.90
2019-01-17T10:54:00.029Z,3.10
2019-01-17T10:56:43.757Z,2.57
2019-01-17T10:59:32.329Z,7.30
2019-01-17T11:02:13.284Z,3.50
2019-01-17T11:04:57.302Z,6.80
2019-01-17T11:07:49.661Z,8.07
2019-01-17T11:10:39.649Z,4.00
2019-01-17T11:13:14.333Z,3.97
2019-01-17T11:15:46.237Z,4.60
2019-01-17T11:18:20.871Z,3.83
2019-01-17T11:21:18.536Z,3.73
2019-01-17T11:24:05.338Z,5.37
2019-01-17T11:26:45.703Z,4.90
2019-01-17T11:29:33.708Z,3.53
2019-01-17T11:32:10.947Z,5.23
2019-01-17T11:34:42.481Z,7.40
2019-01-17T11:37:23.531Z,2.00
2019-01-17T11:40:17.823Z,2.60
2019-01-17T11:43:09.331Z,6.60
2019-01-17T11:45:52.921Z,8.10
2019-01-17T11:48:33.234Z,1.77
2019-01-17T11:51:04.769Z,5.83
2019-01-17T11:53:36.621Z,3.33
2019-01-17T11:56:23.529Z,4.13
2019-01-17T11:59:19.193Z,3.13
2019-01-17T12:02:00.045Z,6.17
2019-01-17T12:04:31.618Z,4.50
2019-01-17T12:07:06.387Z,5.27
2019-01-17T12:09:35.173Z,3.63
2019-01-17T12:12:04.234Z,2.83
2019-01-17T12:14:33.178Z,4.20
2019-01-17T12:17:01.906Z,1.43
2019-01-17T12:19:32.820Z,7.17
2019-01-17T12:22:01.562Z,1.27
2019-01-17T12:24:30.268Z,6.47
2019-01-17T12:26:59.065Z,1.53
2019-01-17T12:29:27.537Z,5.70
2019-01-17T12:31:57.809Z,8.43
2019-01-17T12:34:26.317Z,7.63
2019-01-17T12:36:55.937Z,6.07
2019-01-17T12:39:25.170Z,12.33
2019-01-17T12:41:53.699Z,7.27
2019-01-17T12:44:22.814Z,9.30
2019-01-17T12:46:52.118Z,7.47
2019-01-17T12:49:24.893Z,10.57
2019-01-17T12:51:53.890Z,12.60
2019-01-17T12:54:22.397Z,9.63
2019-01-17T12:56:54.109Z,4.20
2019-01-17T12:59:21.354Z,8.17
2019-01-17T13:01:49.860Z,15.73
2019-01-17T13:04:18.470Z,10.30
2019-01-17T13:06:47.429Z,3.13
2019-01-17T13:09:16.936Z,8.37
2019-01-17T13:11:45.713Z,9.17
2019-01-17T13:14:14.168Z,8.20
2019-01-17T13:16:42.634Z,7.17
2019-01-17T13:19:11.511Z,6.23
2019-01-17T13:21:40.114Z,10.50
2019-01-17T13:24:08.543Z,15.90
2019-01-17T13:26:37.305Z,13.67
2019-01-17T13:29:06.520Z,11.07
2019-01-17T13:31:43.162Z,17.93
2019-01-17T13:34:11.662Z,4.70
2019-01-17T13:36:40.717Z,8.93
2019-01-17T13:39:09.413Z,7.53
2019-01-17T13:41:37.920Z,8.10
2019-01-17T13:44:06.723Z,5.53
2019-01-17T13:46:35.173Z,7.60
2019-01-17T13:49:03.693Z,10.27
2019-01-17T13:51:33.474Z,10.00
2019-01-17T13:54:02.805Z,10.83
2019-01-17T13:56:31.817Z,12.33
2019-01-17T13:59:00.778Z,8.00
2019-01-17T14:01:30.689Z,13.07
2019-01-17T14:04:00.432Z,4.47
2019-01-17T14:06:28.942Z,9.63
2019-01-17T14:08:57.756Z,3.93
2019-01-17T14:11:26.552Z,13.60
2019-01-17T14:13:56.922Z,6.93
2019-01-17T14:16:25.637Z,12.70
2019-01-17T14:18:54.376Z,7.97
2019-01-17T14:21:25.594Z,7.93
2019-01-17T14:23:53.792Z,7.53
2019-01-17T14:26:22.523Z,5.17
2019-01-17T14:28:51.344Z,9.43
2019-01-17T14:31:20.121Z,11.10
2019-01-17T14:33:49.006Z,5.93
2019-01-17T14:36:17.870Z,11.30
2019-01-17T14:38:46.672Z,13.10
2019-01-17T14:41:15.159Z,13.80
2019-01-17T14:43:44.409Z,13.57
2019-01-17T14:46:12.961Z,7.47
2019-01-17T14:48:41.978Z,10.97
2019-01-17T14:51:10.574Z,11.13
2019-01-17T14:53:39.026Z,5.47
2019-01-17T14:56:07.568Z,4.43
2019-01-17T14:58:36.303Z,5.97
2019-01-17T15:01:06.893Z,6.40
2019-01-17T15:03:40.749Z,2.30
2019-01-17T15:06:09.646Z,1.60
2019-01-17T15:08:38.752Z,1.87
2019-01-17T15:11:07.302Z,4.40
2019-01-17T15:13:36.063Z,9.07
2019-01-17T15:16:04.688Z,2.13
2019-01-17T15:18:33.748Z,12.33
2019-01-17T15:21:02.874Z,7.17
2019-01-17T15:23:32.228Z,9.50
2019-01-17T15:26:00.833Z,9.60
2019-01-17T15:28:29.332Z,6.47
2019-01-17T15:30:58.192Z,7.10
2019-01-17T15:33:26.826Z,5.63
2019-01-17T15:35:55.324Z,4.70
2019-01-17T15:38:23.833Z,3.57
2019-01-17T15:40:52.768Z,12.00
2019-01-17T15:43:21.915Z,5.53
2019-01-17T15:45:50.493Z,6.53
2019-01-17T15:48:19.645Z,7.87
2019-01-17T15:50:48.224Z,12.60
2019-01-17T15:53:17.662Z,8.30
2019-01-17T15:55:46.560Z,14.20
2019-01-17T15:58:15.406Z,11.67
2019-01-17T16:00:44.197Z,9.50
2019-01-17T16:03:12.725Z,9.07
2019-01-17T16:05:41.495Z,18.03
2019-01-17T16:08:10.211Z,11.47
2019-01-17T16:10:39.801Z,16.10
2019-01-17T16:13:08.677Z,11.07
2019-01-17T16:15:37.476Z,13.50
2019-01-17T16:18:06.464Z,10.43
2019-01-17T16:20:37.583Z,12.60
2019-01-17T16:23:06.617Z,12.07
2019-01-17T16:25:35.710Z,10.80
2019-01-17T16:28:04.324Z,11.03
2019-01-17T16:30:32.921Z,18.53
2019-01-17T16:33:01.393Z,11.37
2019-01-17T16:35:29.888Z,12.97
2019-01-17T16:37:58.472Z,11.57
2019-01-17T16:40:27.179Z,14.83
2019-01-17T16:43:02.421Z,20.10
2019-01-17T16:45:35.435Z,16.70
2019-01-17T16:48:01.612Z,12.67
2019-01-17T16:50:30.142Z,16.73
2019-01-17T16:52:58.936Z,12.77
2019-01-17T16:55:29.521Z,11.43
2019-01-17T16:57:58.321Z,10.77
2019-01-17T17:00:33.233Z,8.77
2019-01-17T17:03:02.005Z,8.27
2019-01-17T17:05:30.825Z,11.20
2019-01-17T17:07:59.715Z,6.33
2019-01-17T17:10:28.268Z,11.40
2019-01-17T17:12:56.786Z,9.10
2019-01-17T17:15:25.893Z,10.00
2019-01-17T17:17:54.934Z,10.80
2019-01-17T17:20:25.591Z,7.93
2019-01-17T17:22:54.769Z,11.47
2019-01-17T17:25:23.283Z,8.10
2019-01-17T17:27:55.692Z,3.47
2019-01-17T17:30:28.604Z,7.43
2019-01-17T17:32:59.393Z,3.07
2019-01-17T17:35:30.773Z,11.87
2019-01-17T17:37:59.855Z,3.40
2019-01-17T17:43:34.423Z,4.93
2019-01-17T17:46:05.603Z,5.20
2019-01-17T17:48:35.755Z,8.70
2019-01-17T17:51:04.855Z,7.80
2019-01-17T17:53:33.373Z,4.40
2019-01-17T17:56:02.303Z,5.37
2019-01-17T17:58:30.895Z,4.40
2019-01-17T18:01:02.116Z,6.07
2019-01-17T18:03:30.861Z,8.17
2019-01-17T18:05:59.670Z,6.33
2019-01-17T18:08:28.381Z,5.50
2019-01-17T18:10:57.120Z,7.40
2019-01-17T18:13:25.694Z,8.13
2019-01-17T18:15:54.516Z,14.23
2019-01-17T18:18:23.275Z,12.47
2019-01-17T18:20:54.249Z,10.83
2019-01-17T18:23:23.335Z,13.23
2019-01-17T18:25:52.405Z,18.00
2019-01-17T18:28:21.682Z,11.63
2019-01-17T18:30:50.197Z,24.13
2019-01-17T18:33:21.124Z,14.90
2019-01-17T18:35:49.967Z,16.80
2019-01-17T18:38:18.405Z,12.97
2019-01-17T18:40:46.915Z,13.47
2019-01-17T18:43:15.353Z,17.43
2019-01-17T18:45:44.110Z,12.23
2019-01-17T18:48:14.043Z,18.90
2019-01-17T18:50:42.738Z,19.27
2019-01-17T18:53:11.558Z,13.20
2019-01-17T18:55:40.726Z,19.17
2019-01-17T18:58:15.386Z,17.50
2019-01-17T19:00:43.456Z,15.23
2019-01-17T19:03:11.971Z,16.00
2019-01-17T19:05:40.771Z,13.47
2019-01-17T19:08:09.776Z,15.27
2019-01-17T19:10:38.391Z,12.60
2019-01-17T19:13:06.888Z,12.50
2019-01-17T19:15:35.588Z,14.07
2019-01-17T19:18:04.746Z,11.57
2019-01-17T19:20:33.273Z,11.57
2019-01-17T19:23:01.715Z,8.90
2019-01-17T19:25:32.390Z,9.97
2019-01-17T19:28:00.965Z,10.63
2019-01-17T19:30:30.524Z,7.10
2019-01-17T19:32:59.126Z,10.50
2019-01-17T19:35:27.749Z,5.13
2019-01-17T19:37:56.403Z,11.00
2019-01-17T19:40:27.494Z,13.13
2019-01-17T19:42:56.073Z,17.63
2019-01-17T19:45:24.535Z,11.70
2019-01-17T19:47:53.533Z,10.47
2019-01-17T19:50:25.202Z,9.13
2019-01-17T19:52:54.409Z,11.17
2019-01-17T19:55:23.303Z,10.03
2019-01-17T19:57:52.187Z,9.57
2019-01-17T20:00:21.629Z,6.53
2019-01-17T20:02:50.298Z,11.60
2019-01-17T20:05:21.615Z,11.83
2019-01-17T20:07:50.488Z,12.60
2019-01-17T20:10:31.063Z,11.73
2019-01-17T20:12:59.644Z,5.53
2019-01-17T20:15:28.524Z,5.83
2019-01-17T20:17:57.055Z,15.87
2019-01-17T20:20:31.691Z,11.43
2019-01-17T20:22:57.963Z,10.37
2019-01-17T20:25:26.598Z,11.23
2019-01-17T20:27:55.045Z,12.77
2019-01-17T20:30:26.574Z,14.23
2019-01-17T20:32:56.478Z,13.30
2019-01-17T20:35:25.176Z,8.43
2019-01-17T20:37:53.956Z,10.10
2019-01-17T20:40:25.078Z,9.53
2019-01-17T20:42:56.438Z,7.47
2019-01-17T20:45:25.440Z,10.47
2019-01-17T20:47:54.187Z,15.13
2019-01-17T20:50:28.584Z,17.00
2019-01-17T20:52:57.044Z,10.40
2019-01-17T20:55:25.654Z,27.43
2019-01-17T20:57:54.540Z,28.07
2019-01-17T21:00:32.472Z,26.07
2019-01-17T21:03:01.372Z,20.77
2019-01-17T21:05:30.401Z,26.50
2019-01-17T21:07:59.478Z,13.93
2019-01-17T21:10:28.346Z,14.67
2019-01-17T21:12:56.888Z,12.97
2019-01-17T21:15:26.052Z,16.93
2019-01-17T21:17:54.956Z,15.20
2019-01-17T21:20:23.434Z,14.27
2019-01-17T21:22:52.292Z,12.63
2019-01-17T21:25:21.628Z,16.53
2019-01-17T21:27:50.464Z,10.03
2019-01-17T21:30:21.595Z,13.83
2019-01-17T21:32:51.126Z,10.77
2019-01-17T21:35:20.314Z,11.23
2019-01-17T21:37:49.472Z,11.97
2019-01-17T21:40:23.191Z,11.93
2019-01-17T21:42:52.566Z,18.23
2019-01-17T21:45:21.392Z,26.63
2019-01-17T21:47:50.339Z,20.10
2019-01-17T21:50:27.608Z,14.00
2019-01-17T21:52:56.606Z,19.53
2019-01-17T21:55:25.891Z,19.07
2019-01-17T21:57:54.884Z,16.60
2019-01-17T22:00:30.462Z,22.37
2019-01-17T22:02:59.340Z,21.20
2019-01-17T22:05:29.604Z,34.97
2019-01-17T22:07:58.687Z,36.43
2019-01-17T22:10:29.187Z,37.30
2019-01-17T22:12:58.244Z,42.83
2019-01-17T22:15:28.601Z,31.20
2019-01-17T22:17:57.084Z,27.70
2019-01-17T22:20:25.588Z,25.23
2019-01-17T22:22:54.398Z,28.07
2019-01-17T22:25:22.873Z,27.47
2019-01-17T22:27:53.824Z,25.23
2019-01-17T22:30:30.258Z,18.60
2019-01-17T22:32:59.096Z,24.47
2019-01-17T22:35:27.672Z,19.03
2019-01-17T22:37:56.807Z,34.60
2019-01-17T22:40:25.245Z,27.03
2019-01-17T22:42:54.357Z,17.23
2019-01-17T22:45:25.560Z,18.23
2019-01-17T22:47:55.792Z,19.30
2019-01-17T22:50:31.900Z,16.60
2019-01-17T22:53:00.364Z,18.27
2019-01-17T22:55:31.067Z,16.30
2019-01-17T22:57:59.302Z,20.43
2019-01-17T23:00:33.793Z,15.77
2019-01-17T23:03:12.777Z,17.30
2019-01-17T23:05:41.227Z,14.67
2019-01-17T23:08:09.761Z,13.10
2019-01-17T23:10:38.574Z,21.60
2019-01-17T23:13:07.050Z,16.10
2019-01-17T23:15:35.923Z,19.13
2019-01-17T23:18:04.797Z,15.07
2019-01-17T23:20:33.261Z,24.67
2019-01-17T23:23:01.801Z,17.83
2019-01-17T23:25:32.714Z,27.63
2019-01-17T23:28:01.279Z,20.10
2019-01-17T23:30:30.641Z,22.40
2019-01-17T23:33:01.780Z,16.83
2019-01-17T23:35:30.249Z,17.27
2019-01-17T23:37:59.150Z,20.60
2019-01-17T23:40:27.977Z,17.43
2019-01-17T23:42:56.879Z,13.43
2019-01-17T23:45:28.173Z,16.80
2019-01-17T23:47:57.127Z,13.20
2019-01-17T23:50:25.673Z,13.23
2019-01-17T23:52:54.440Z,38.33
2019-01-17T23:55:23.221Z,24.47
2019-01-17T23:57:53.030Z,22.30
